Time;durP1;ratioP1;P1;durP2;ratioP2;P2;SDS_P1;SDS_P2;PMS_P1;PMS_P2;Temp;Humidity;BMP_temperature;BMP_pressure;BME280_temperature;BME280_humidity;BME280_pressure;Samples;Min_cycle;Max_cycle;Signal;HPM_P1;HPM_P2
2024/03/12 00:00:18;;;;;;;31.20;13.50;;;;;;;-8.69;56.91;140171.59;106662;1278;25373;-62
2024/03/12 00:03:09;;;;;;;26.40;13.50;;;;;;;-8.71;57.23;140168.14;106636;1275;25327;-67
2024/03/12 00:05:57;;;;;;;30.90;13.90;;;;;;;-8.72;57.20;140166.17;106656;1276;25366;-62
2024/03/12 00:08:43;;;;;;;27.40;14.00;;;;;;;-8.73;57.48;140163.47;106652;1279;25345;-63
2024/03/12 00:11:29;;;;;;;27.90;13.30;;;;;;;-8.76;57.75;140156.78;106660;1279;25334;-66
2024/03/12 00:14:14;;;;;;;27.60;12.90;;;;;;;-8.76;58.04;140156.28;106627;1277;25457;-62
2024/03/12 00:17:00;;;;;;;27.80;15.30;;;;;;;-8.77;58.19;140154.59;106670;1279;25357;-65
2024/03/12 00:19:48;;;;;;;29.90;14.80;;;;;;;-8.79;58.00;140149.63;106669;1277;25388;-64
2024/03/12 00:22:34;;;;;;;26.30;13.80;;;;;;;-8.79;58.39;140148.91;106675;1278;25439;-67
2024/03/12 00:25:21;;;;;;;23.40;12.30;;;;;;;-8.81;58.09;140144.69;106674;1274;25561;-65
2024/03/12 00:28:08;;;;;;;27.70;13.10;;;;;;;-8.83;58.52;140140.03;106640;1269;25529;-66
2024/03/12 00:30:54;;;;;;;30.30;13.00;;;;;;;-8.84;58.83;140136.34;106676;1274;25400;-62
2024/03/12 00:33:42;;;;;;;29.70;13.60;;;;;;;-8.85;59.09;140135.09;106660;1277;25439;-62
2024/03/12 00:36:28;;;;;;;28.40;14.20;;;;;;;-8.85;59.22;140134.09;106646;1276;25419;-62
2024/03/12 00:39:15;;;;;;;29.10;13.50;;;;;;;-8.86;59.53;140132.39;106619;1278;25324;-64
2024/03/12 00:42:02;;;;;;;29.90;14.30;;;;;;;-8.87;59.30;140128.70;106664;1268;25499;-68
2024/03/12 00:44:48;;;;;;;30.90;14.30;;;;;;;-8.87;59.73;140128.19;106668;1277;25345;-64
2024/03/12 00:47:34;;;;;;;29.40;14.20;;;;;;;-8.89;59.70;140123.75;106676;1275;25325;-63
2024/03/12 00:50:21;;;;;;;32.60;14.80;;;;;;;-8.92;59.76;140117.58;106656;1272;25378;-66
2024/03/12 00:53:07;;;;;;;29.60;15.40;;;;;;;-8.93;60.06;140115.38;106655;1277;25590;-62
2024/03/12 00:55:53;;;;;;;27.40;14.30;;;;;;;-8.95;60.08;140110.19;106644;1271;25486;-63
2024/03/12 00:58:39;;;;;;;29.40;14.40;;;;;;;-8.96;60.45;140107.72;106674;1278;25337;-66
2024/03/12 01:01:26;;;;;;;32.40;15.30;;;;;;;-8.98;60.24;140103.81;106642;1270;22533;-63
2024/03/12 01:04:12;;;;;;;31.40;13.40;;;;;;;-9.00;60.32;140099.84;106666;1270;25338;-63
2024/03/12 01:06:58;;;;;;;31.60;14.30;;;;;;;-9.00;60.16;140099.09;106652;1279;25469;-66
2024/03/12 01:09:46;;;;;;;30.90;14.40;;;;;;;-9.02;60.71;140093.45;106653;1280;25355;-61
2024/03/12 01:12:32;;;;;;;35.90;17.60;;;;;;;-9.03;60.66;140091.97;106669;1280;25367;-63
2024/03/12 01:15:19;;;;;;;40.10;20.40;;;;;;;-9.03;60.79;140091.72;106660;1269;25357;-61
2024/03/12 01:18:05;;;;;;;43.50;19.30;;;;;;;-9.02;60.76;140093.19;106676;1270;25421;-60
2024/03/12 01:20:52;;;;;;;42.90;19.90;;;;;;;-9.04;60.86;140087.52;106631;1274;25342;-66
2024/03/12 01:23:37;;;;;;;43.90;18.60;;;;;;;-9.06;60.99;140083.83;106680;1279;25383;-67
2024/03/12 01:26:25;;;;;;;39.50;16.70;;;;;;;-9.07;61.29;140081.84;106666;1270;25395;-63
2024/03/12 01:29:11;;;;;;;30.70;16.90;;;;;;;-9.06;61.05;140084.80;106662;1274;25358;-64
2024/03/12 01:31:56;;;;;;;33.30;16.20;;;;;;;-9.06;61.40;140082.83;106610;1278;25624;-66
2024/03/12 01:34:43;;;;;;;37.90;18.10;;;;;;;-9.04;61.14;140088.52;106537;1270;25486;-65
2024/03/12 01:37:29;;;;;;;38.50;17.60;;;;;;;-9.04;61.32;140090.23;106431;1279;25412;-66
2024/03/12 01:40:21;;;;;;;37.20;18.20;;;;;;;-9.05;61.61;140085.80;106493;1270;25631;-67
2024/03/12 01:43:07;;;;;;;30.50;16.50;;;;;;;-9.05;61.71;140086.53;106490;1270;25334;-61
2024/03/12 01:45:54;;;;;;;31.90;15.70;;;;;;;-9.07;62.14;140081.59;106605;1279;25337;-63
2024/03/12 01:48:40;;;;;;;29.10;14.10;;;;;;;-9.08;62.00;140078.16;106671;1278;22625;-67
2024/03/12 01:51:27;;;;;;;33.70;16.00;;;;;;;-9.09;62.49;140077.41;106716;1270;25383;-66
2024/03/12 01:54:14;;;;;;;36.00;17.00;;;;;;;-9.10;62.54;140073.95;106666;1270;24247;-64
2024/03/12 01:56:59;;;;;;;35.00;17.30;;;;;;;-9.12;62.76;140068.06;106681;1270;25463;-65
2024/03/12 01:59:45;;;;;;;34.50;17.10;;;;;;;-9.12;62.97;140069.03;106694;1277;25386;-64
2024/03/12 02:02:31;;;;;;;38.20;16.70;;;;;;;-9.12;63.01;140070.03;106634;1275;25325;-65
2024/03/12 02:05:16;;;;;;;45.10;16.80;;;;;;;-9.12;63.10;140068.55;106665;1269;25498;-62
2024/03/12 02:08:02;;;;;;;32.60;16.00;;;;;;;-9.12;63.25;140069.77;106687;1279;25425;-64
2024/03/12 02:10:47;;;;;;;36.50;15.70;;;;;;;-9.14;63.12;140064.34;106631;1276;25337;-65
2024/03/12 02:13:33;;;;;;;33.80;16.20;;;;;;;-9.14;63.57;140065.09;106650;1269;25337;-62
2024/03/12 02:16:18;;;;;;;33.90;15.30;;;;;;;-9.14;63.56;140064.34;106655;1271;25503;-65
2024/03/12 02:19:05;;;;;;;36.80;16.60;;;;;;;-9.15;63.58;140063.13;106638;1264;25366;-66
2024/03/12 02:21:50;;;;;;;34.60;16.00;;;;;;;-9.16;63.52;140059.92;106678;1279;25346;-63
2024/03/12 02:24:36;;;;;;;34.60;16.50;;;;;;;-9.15;63.75;140062.13;106580;1279;25359;-61
2024/03/12 02:27:22;;;;;;;32.70;15.40;;;;;;;-9.14;63.85;140064.11;106663;1279;25401;-66
2024/03/12 02:30:09;;;;;;;39.20;17.60;;;;;;;-9.15;63.87;140061.89;106666;1277;25493;-66
2024/03/12 02:32:55;;;;;;;34.00;17.40;;;;;;;-9.15;64.18;140063.11;106663;1270;25358;-64
2024/03/12 02:35:40;;;;;;;34.80;15.80;;;;;;;-9.15;64.23;140061.16;106634;1270;25497;-61
2024/03/12 02:38:26;;;;;;;33.60;15.90;;;;;;;-9.15;64.19;140061.41;106639;1271;25416;-64
2024/03/12 02:41:12;;;;;;;37.90;16.20;;;;;;;-9.17;64.50;140057.45;106656;1279;25385;-66
2024/03/12 02:43:58;;;;;;;29.70;15.10;;;;;;;-9.17;64.49;140057.22;106644;1267;25419;-63
2024/03/12 02:46:46;;;;;;;34.00;16.20;;;;;;;-9.18;64.83;140055.75;106659;1269;25466;-61
2024/03/12 02:49:32;;;;;;;35.70;14.90;;;;;;;-9.18;64.87;140055.00;106635;1270;25386;-65
2024/03/12 02:52:18;;;;;;;31.10;16.00;;;;;;;-9.18;65.00;140054.77;106647;1270;25356;-61
2024/03/12 02:55:04;;;;;;;30.40;15.90;;;;;;;-9.18;65.23;140055.00;106652;1269;25386;-65
2024/03/12 02:57:50;;;;;;;31.90;15.00;;;;;;;-9.15;65.08;140061.41;106641;1270;25425;-64
2024/03/12 03:00:36;;;;;;;34.40;17.20;;;;;;;-9.14;64.78;140065.59;106664;1270;23902;-64
2024/03/12 03:03:22;;;;;;;26.20;14.60;;;;;;;-9.12;65.06;140068.30;106677;1270;25349;-64
2024/03/12 03:06:08;;;;;;;34.50;17.50;;;;;;;-9.11;65.29;140071.75;106654;1271;25397;-67
2024/03/12 03:08:54;;;;;;;33.90;15.40;;;;;;;-9.08;65.22;140079.64;106644;1270;25373;-67
2024/03/12 03:11:40;;;;;;;29.00;15.80;;;;;;;-9.06;65.63;140083.84;106630;1277;25413;-64
2024/03/12 03:14:25;;;;;;;28.50;14.90;;;;;;;-9.06;65.69;140083.31;106637;1270;25435;-63
2024/03/12 03:17:11;;;;;;;34.10;15.60;;;;;;;-9.06;66.10;140083.58;106651;1276;25619;-62
2024/03/12 03:19:56;;;;;;;29.50;15.90;;;;;;;-9.07;66.08;140082.09;106622;1269;25373;-62
2024/03/12 03:22:42;;;;;;;30.80;15.90;;;;;;;-9.07;66.31;140081.86;106646;1270;25425;-64
2024/03/12 03:25:28;;;;;;;37.50;17.50;;;;;;;-9.04;66.34;140087.77;106648;1279;25348;-68
2024/03/12 03:28:14;;;;;;;35.50;15.30;;;;;;;-9.02;66.02;140092.95;106670;1279;25399;-64
2024/03/12 03:31:00;;;;;;;32.30;16.50;;;;;;;-9.01;66.39;140095.41;106670;1276;25355;-65
2024/03/12 03:33:47;;;;;;;34.40;17.20;;;;;;;-9.03;66.52;140091.97;106673;1270;25422;-67
2024/03/12 03:36:33;;;;;;;30.00;16.20;;;;;;;-9.05;66.87;140086.31;106659;1270;25372;-63
2024/03/12 03:39:20;;;;;;;30.80;16.10;;;;;;;-9.05;66.67;140085.81;106666;1277;25338;-65
2024/03/12 03:42:06;;;;;;;28.80;14.40;;;;;;;-9.05;66.71;140086.53;106637;1267;25421;-60
2024/03/12 03:44:52;;;;;;;38.20;17.60;;;;;;;-9.06;67.04;140084.06;106645;1278;25349;-62
2024/03/12 03:47:38;;;;;;;36.70;16.60;;;;;;;-9.07;67.32;140082.59;106651;1269;25488;-63
2024/03/12 03:50:24;;;;;;;32.50;13.50;;;;;;;-9.06;67.00;140083.33;106645;1270;25411;-62
2024/03/12 03:53:10;;;;;;;31.70;15.40;;;;;;;-9.08;66.63;140079.41;106638;1268;25367;-66
2024/03/12 03:55:55;;;;;;;31.70;15.20;;;;;;;-9.09;66.90;140076.17;106644;1270;25421;-61
2024/03/12 03:58:43;;;;;;;44.90;19.20;;;;;;;-9.07;66.68;140080.89;106652;1278;25366;-62
2024/03/12 04:01:29;;;;;;;34.20;15.70;;;;;;;-9.06;66.78;140084.33;106627;1270;25345;-62
2024/03/12 04:04:15;;;;;;;32.70;16.00;;;;;;;-9.07;66.65;140081.86;106670;1270;25358;-64
2024/03/12 04:07:01;;;;;;;36.70;17.50;;;;;;;-9.06;66.88;140084.80;106645;1275;25542;-64
2024/03/12 04:09:47;;;;;;;36.80;15.60;;;;;;;-9.04;66.51;140089.00;106673;1277;25460;-64
2024/03/12 04:12:33;;;;;;;32.50;15.80;;;;;;;-9.01;66.79;140095.41;106638;1269;25348;-63
2024/03/12 04:15:19;;;;;;;39.80;16.70;;;;;;;-9.00;66.84;140099.13;106610;1269;25423;-62
2024/03/12 04:18:05;;;;;;;38.90;17.60;;;;;;;-9.00;67.19;140098.61;106650;1270;25428;-65
2024/03/12 04:20:53;;;;;;;33.00;15.50;;;;;;;-9.03;67.08;140090.97;106668;1277;25383;-61
2024/03/12 04:23:39;;;;;;;32.60;14.70;;;;;;;-9.04;67.25;140088.53;106654;1270;25373;-61
2024/03/12 04:26:24;;;;;;;32.00;16.30;;;;;;;-9.04;67.64;140087.53;106665;1271;25380;-66
2024/03/12 04:29:10;;;;;;;33.40;16.70;;;;;;;-9.04;67.76;140089.98;106622;1269;25357;-66
2024/03/12 04:31:56;;;;;;;32.90;15.50;;;;;;;-9.01;67.70;140096.16;106665;1277;25427;-64
2024/03/12 04:34:42;;;;;;;35.80;17.60;;;;;;;-8.98;67.33;140102.55;106642;1279;25497;-67
2024/03/12 04:37:31;;;;;;;33.10;16.10;;;;;;;-8.96;67.44;140107.72;106648;1271;25532;-63
2024/03/12 04:40:19;;;;;;;30.10;13.20;;;;;;;-8.94;67.20;140112.41;106643;1267;25366;-65
2024/03/12 04:43:05;;;;;;;30.70;15.20;;;;;;;-8.97;67.25;140106.75;106665;1267;25440;-62
2024/03/12 04:45:51;;;;;;;31.10;13.80;;;;;;;-8.96;67.26;140109.20;106638;1270;25366;-65
2024/03/12 04:48:37;;;;;;;33.90;14.60;;;;;;;-8.95;66.87;140109.69;106658;1271;25353;-63
2024/03/12 04:51:22;;;;;;;30.30;15.50;;;;;;;-8.96;66.98;140107.47;106643;1269;25345;-66
2024/03/12 04:54:09;;;;;;;31.10;15.90;;;;;;;-8.96;67.43;140108.22;106640;1267;25521;-64
2024/03/12 04:56:57;;;;;;;33.10;15.20;;;;;;;-8.95;67.37;140110.69;106670;1278;25497;-66
2024/03/12 04:59:42;;;;;;;35.80;16.80;;;;;;;-8.90;67.26;140122.78;106670;1270;24195;-63
2024/03/12 05:02:28;;;;;;;29.10;16.10;;;;;;;-8.88;67.39;140127.20;106632;1279;25484;-61
2024/03/12 05:05:17;;;;;;;38.50;15.80;;;;;;;-8.87;67.48;140127.95;106657;1265;25520;-66
2024/03/12 05:08:03;;;;;;;40.30;17.80;;;;;;;-8.86;67.62;140132.38;106609;1270;25381;-65
2024/03/12 05:10:49;;;;;;;32.20;16.20;;;;;;;-8.84;67.59;140135.33;106650;1269;25338;-64
2024/03/12 05:13:35;;;;;;;35.90;18.60;;;;;;;-8.83;67.80;140138.78;106672;1270;25498;-61
2024/03/12 05:16:25;;;;;;;37.80;17.10;;;;;;;-8.82;67.74;140141.75;106653;1276;25559;-63
2024/03/12 05:19:11;;;;;;;39.90;18.30;;;;;;;-8.79;67.94;140149.41;106626;1269;25407;-64
2024/03/12 05:21:58;;;;;;;37.00;16.80;;;;;;;-8.76;67.61;140155.56;106670;1266;25415;-63
2024/03/12 05:24:45;;;;;;;34.80;17.00;;;;;;;-8.73;67.73;140163.47;106639;1270;25551;-68
2024/03/12 05:27:37;;;;;;;41.70;18.60;;;;;;;-8.70;67.76;140169.88;106623;1267;25361;-61
2024/03/12 05:30:23;;;;;;;39.70;18.60;;;;;;;-8.66;67.52;140179.47;106633;1269;25527;-64
2024/03/12 05:33:15;;;;;;;32.80;16.20;;;;;;;-8.63;67.82;140186.88;106643;1270;25442;-63
2024/03/12 05:36:09;;;;;;;38.00;15.40;;;;;;;-8.58;67.85;140199.69;106639;1269;25419;-64
2024/03/12 05:39:03;;;;;;;36.80;19.00;;;;;;;-8.56;67.95;140204.41;106671;1264;25338;-65
2024/03/12 05:48:06;;;;;;;37.70;18.80;;;;;;;-8.54;67.95;140210.78;106639;1268;25362;-67
2024/03/12 05:48:12;;;;;;;37.60;18.90;;;;;;;-8.48;68.32;140222.63;106649;1270;25348;-67
2024/03/12 05:50:59;;;;;;;38.00;17.30;;;;;;;-8.47;68.32;140223.84;106684;1279;25468;-66
2024/03/12 05:53:44;;;;;;;36.30;17.40;;;;;;;-8.47;68.71;140225.84;106631;1270;25485;-63
2024/03/12 05:56:31;;;;;;;38.40;17.50;;;;;;;-8.43;68.78;140234.47;106675;1268;25412;-61
2024/03/12 05:59:18;;;;;;;29.70;16.30;;;;;;;-8.41;68.79;140240.16;106661;1269;25376;-65
2024/03/12 06:02:04;;;;;;;35.50;17.00;;;;;;;-8.38;68.79;140247.50;106634;1266;25485;-64
2024/03/12 06:04:50;;;;;;;40.20;17.70;;;;;;;-8.34;68.94;140256.38;106666;1271;25379;-64
2024/03/12 06:07:36;;;;;;;35.60;18.60;;;;;;;-8.28;69.09;140270.91;106659;1270;25388;-66
2024/03/12 06:10:22;;;;;;;47.20;18.70;;;;;;;-8.25;69.12;140279.08;106643;1268;25328;-65
2024/03/12 06:13:07;;;;;;;37.00;17.70;;;;;;;-8.20;69.03;140290.41;106656;1271;25363;-68
2024/03/12 06:15:53;;;;;;;34.10;17.00;;;;;;;-8.20;68.99;140290.41;106628;1270;25495;-64
2024/03/12 06:18:39;;;;;;;36.30;16.40;;;;;;;-8.20;69.13;140289.67;106646;1265;25415;-63
2024/03/12 06:21:25;;;;;;;32.80;15.20;;;;;;;-8.17;68.84;140298.55;106637;1270;25334;-63
2024/03/12 06:24:11;;;;;;;40.80;18.50;;;;;;;-8.14;68.96;140306.42;106642;1271;25356;-66
2024/03/12 06:26:57;;;;;;;40.60;19.00;;;;;;;-8.11;69.09;140311.63;106617;1270;25355;-64
2024/03/12 06:29:51;;;;;;;36.70;18.70;;;;;;;-8.11;69.20;140313.34;106663;1268;25474;-64
2024/03/12 06:32:37;;;;;;;34.80;18.10;;;;;;;-8.09;69.28;140317.30;106628;1270;25373;-67
2024/03/12 06:35:22;;;;;;;41.70;18.10;;;;;;;-8.08;69.40;140320.75;106544;1265;25345;-64
2024/03/12 06:38:09;;;;;;;41.10;17.70;;;;;;;-8.01;69.67;140336.03;106684;1266;25428;-64
2024/03/12 06:40:55;;;;;;;37.80;18.80;;;;;;;-7.94;69.75;140353.33;106548;1262;25358;-65
2024/03/12 06:43:41;;;;;;;35.30;18.20;;;;;;;-7.91;70.19;140361.95;106538;1268;25521;-66
2024/03/12 06:46:28;;;;;;;40.30;18.90;;;;;;;-7.88;70.30;140367.63;106641;1270;25327;-62
2024/03/12 06:49:14;;;;;;;42.40;17.40;;;;;;;-7.83;70.72;140380.95;106630;1257;25425;-67
2024/03/12 06:52:00;;;;;;;38.20;18.00;;;;;;;-7.80;70.76;140386.14;106641;1270;25408;-67
2024/03/12 06:54:48;;;;;;;44.00;19.70;;;;;;;-7.80;71.15;140386.16;106615;1270;25425;-64
2024/03/12 06:57:34;;;;;;;39.80;16.90;;;;;;;-7.77;71.53;140393.78;106656;1268;25425;-62
2024/03/12 07:00:36;;;;;;;41.40;19.40;;;;;;;-7.77;71.54;140394.78;106683;1278;25450;-63
2024/03/12 07:03:24;;;;;;;41.70;19.80;;;;;;;-7.75;71.64;140399.23;106628;1262;25351;-64
2024/03/12 07:06:10;;;;;;;38.80;18.30;;;;;;;-7.74;71.75;140400.70;106648;1279;25366;-64
2024/03/12 07:09:01;;;;;;;49.40;20.70;;;;;;;-7.72;72.29;140406.86;106632;1268;25366;-65
2024/03/12 07:11:47;;;;;;;42.20;20.60;;;;;;;-7.63;72.32;140428.84;106645;1270;25533;-68
2024/03/12 07:14:40;;;;;;;52.30;23.80;;;;;;;-7.57;72.07;140441.69;106654;1279;25403;-65
2024/03/12 07:17:27;;;;;;;50.70;21.60;;;;;;;-7.56;72.04;140443.88;106650;1270;25334;-66
2024/03/12 07:20:20;;;;;;;40.70;20.00;;;;;;;-7.55;72.27;140446.38;106649;1262;25428;-65
2024/03/12 07:23:06;;;;;;;38.90;18.80;;;;;;;-7.60;72.37;140435.00;106642;1259;25337;-64
2024/03/12 07:25:52;;;;;;;46.10;19.30;;;;;;;-7.55;72.34;140446.84;106634;1260;25348;-65
2024/03/12 07:28:38;;;;;;;43.80;20.80;;;;;;;-7.52;72.55;140455.00;106638;1271;25456;-65
2024/03/12 07:31:25;;;;;;;48.40;21.50;;;;;;;-7.53;72.94;140451.78;106650;1268;25335;-64
2024/03/12 07:34:11;;;;;;;48.10;22.10;;;;;;;-7.53;72.99;140451.80;106619;1260;25337;-66
2024/03/12 07:36:59;;;;;;;49.40;20.20;;;;;;;-7.47;73.19;140465.59;106654;1262;25369;-66
2024/03/12 07:39:46;;;;;;;46.30;19.70;;;;;;;-7.45;73.19;140470.56;106630;1262;25386;-63
2024/03/12 07:42:33;;;;;;;51.40;20.90;;;;;;;-7.43;73.19;140477.22;106627;1262;25432;-65
2024/03/12 07:45:24;;;;;;;41.40;20.70;;;;;;;-7.44;73.28;140473.28;106643;1259;25383;-66
2024/03/12 07:48:10;;;;;;;49.20;20.40;;;;;;;-7.41;73.65;140481.91;106583;1259;25525;-65
2024/03/12 07:50:56;;;;;;;40.70;20.60;;;;;;;-7.37;73.32;140491.53;106658;1262;25348;-64
2024/03/12 07:53:46;;;;;;;41.80;22.70;;;;;;;-7.34;73.61;140499.66;106640;1261;25420;-65
2024/03/12 07:56:31;;;;;;;36.30;19.80;;;;;;;-7.30;73.69;140508.83;106632;1279;25522;-66
2024/03/12 07:59:21;;;;;;;38.90;19.90;;;;;;;-7.30;73.79;140508.83;106652;1270;25341;-68
2024/03/12 08:02:15;;;;;;;40.10;21.40;;;;;;;-7.30;74.25;140508.80;106635;1279;25376;-64
2024/03/12 08:05:01;;;;;;;41.30;21.70;;;;;;;-7.28;74.43;140512.28;106659;1260;25445;-65
2024/03/12 08:07:47;;;;;;;46.60;21.40;;;;;;;-7.26;74.62;140518.69;106666;1262;25419;-63
2024/03/12 08:10:33;;;;;;;44.70;22.50;;;;;;;-7.22;74.63;140528.05;106639;1262;25376;-64
2024/03/12 08:13:21;;;;;;;46.20;23.00;;;;;;;-7.17;74.63;140537.22;106627;1260;25407;-64
2024/03/12 08:16:07;;;;;;;47.00;21.00;;;;;;;-7.14;74.44;140546.84;106627;1262;25473;-66
2024/03/12 08:18:53;;;;;;;40.90;19.20;;;;;;;-7.12;74.54;140549.78;106625;1265;25501;-67
2024/03/12 08:21:39;;;;;;;51.70;23.30;;;;;;;-7.12;74.94;140551.03;106631;1261;25448;-69
2024/03/12 08:24:26;;;;;;;49.30;24.40;;;;;;;-7.08;74.79;140562.41;106621;1262;25363;-65
2024/03/12 08:27:12;;;;;;;49.00;24.00;;;;;;;-7.06;74.82;140565.36;106633;1279;25373;-67
2024/03/12 08:29:58;;;;;;;50.80;23.20;;;;;;;-7.08;74.99;140561.41;106640;1279;23774;-67
2024/03/12 08:32:44;;;;;;;47.60;24.00;;;;;;;-7.07;75.28;140563.63;106623;1279;25376;-62
2024/03/12 08:35:31;;;;;;;46.80;23.40;;;;;;;-7.07;75.52;140564.11;106649;1261;25490;-63
2024/03/12 08:38:18;;;;;;;46.80;24.90;;;;;;;-7.08;75.95;140559.67;106676;1259;25428;-62
2024/03/12 08:41:05;;;;;;;46.70;22.20;;;;;;;-7.06;76.20;140564.84;106644;1261;25337;-65
2024/03/12 08:43:51;;;;;;;48.20;23.40;;;;;;;-7.01;76.13;140577.45;106629;1279;25367;-64
2024/03/12 08:46:37;;;;;;;48.80;23.30;;;;;;;-6.96;76.32;140590.55;106650;1262;25337;-63
2024/03/12 08:49:23;;;;;;;50.20;24.30;;;;;;;-6.88;76.46;140609.83;106622;1279;25425;-62
2024/03/12 08:52:10;;;;;;;45.80;24.20;;;;;;;-6.88;77.44;140609.33;106642;1279;25376;-68
2024/03/12 08:54:56;;;;;;;47.30;25.00;;;;;;;-6.94;78.66;140594.00;106642;1269;25377;-67
2024/03/12 08:57:42;;;;;;;44.50;22.30;;;;;;;-6.99;80.58;140584.13;106646;1262;25376;-69
2024/03/12 09:00:29;;;;;;;57.40;26.80;;;;;;;-7.01;82.74;140579.42;106650;1259;25338;-65
2024/03/12 09:03:16;;;;;;;50.70;25.50;;;;;;;-7.03;84.32;140572.53;106668;1260;25535;-65
2024/03/12 09:06:02;;;;;;;53.90;23.90;;;;;;;-7.02;87.36;140577.22;106659;1259;25380;-62
2024/03/12 09:08:49;;;;;;;47.90;24.00;;;;;;;-7.07;89.71;140563.88;106653;1265;25385;-65
2024/03/12 09:11:38;;;;;;;53.00;24.50;;;;;;;-7.08;91.64;140561.89;106648;1262;25366;-62
2024/03/12 09:14:24;;;;;;;57.00;26.20;;;;;;;-7.03;92.50;140574.50;106651;1261;25335;-61
2024/03/12 09:17:10;;;;;;;51.00;25.40;;;;;;;-6.93;93.27;140597.72;106638;1279;25474;-63
2024/03/12 09:19:57;;;;;;;54.90;26.80;;;;;;;-6.84;93.51;140620.44;106625;1258;25359;-64
2024/03/12 09:22:46;;;;;;;57.20;27.30;;;;;;;-6.77;93.65;140636.25;106629;1279;25335;-64
2024/03/12 09:25:32;;;;;;;55.80;26.50;;;;;;;-6.77;93.56;140635.02;106623;1279;25365;-65
2024/03/12 09:28:18;;;;;;;51.10;25.80;;;;;;;-6.80;94.30;140630.33;106649;1279;25357;-66
2024/03/12 09:31:08;;;;;;;49.70;23.90;;;;;;;-6.78;94.70;140633.53;106620;1279;25382;-63
2024/03/12 09:33:55;;;;;;;45.90;23.80;;;;;;;-6.77;95.79;140637.48;106663;1262;25513;-66
2024/03/12 09:36:41;;;;;;;43.90;22.80;;;;;;;-6.76;97.42;140638.22;106653;1279;25460;-67
2024/03/12 09:39:27;;;;;;;48.30;24.80;;;;;;;-6.75;98.60;140640.44;106487;1280;192700;-61
2024/03/12 09:42:17;;;;;;;44.00;23.80;;;;;;;-6.77;99.50;140636.25;106661;1279;25497;-68
2024/03/12 09:45:06;;;;;;;41.60;21.90;;;;;;;-6.79;100.00;140631.81;106652;1259;25425;-68
2024/03/12 09:47:52;;;;;;;39.90;22.50;;;;;;;-6.77;100.00;140636.73;106655;1261;24206;-67
2024/03/12 09:50:38;;;;;;;44.10;23.10;;;;;;;-6.80;100.00;140629.34;106635;1261;25482;-66
2024/03/12 09:53:25;;;;;;;47.20;20.60;;;;;;;-6.84;100.00;140618.95;106686;1262;25366;-66
2024/03/12 09:56:16;;;;;;;36.90;21.20;;;;;;;-6.88;100.00;140609.08;106675;1260;25339;-67
2024/03/12 09:59:02;;;;;;;44.70;23.00;;;;;;;-6.88;100.00;140609.09;106651;1261;25340;-62
2024/03/12 10:01:48;;;;;;;44.10;22.90;;;;;;;-6.88;100.00;140609.83;106648;1270;25366;-62
2024/03/12 10:04:34;;;;;;;37.10;21.00;;;;;;;-6.86;100.00;140614.77;106659;1261;25337;-63
2024/03/12 10:07:21;;;;;;;41.10;21.60;;;;;;;-6.94;100.00;140593.75;106639;1260;25424;-63
2024/03/12 10:10:09;;;;;;;40.80;21.10;;;;;;;-7.02;100.00;140574.48;106638;1260;25549;-64
2024/03/12 10:12:54;;;;;;;40.90;21.80;;;;;;;-7.04;100.00;140569.56;106658;1259;25348;-65
2024/03/12 10:15:56;;;;;;;41.70;22.10;;;;;;;-7.06;100.00;140565.36;106653;1259;25334;-65
2024/03/12 10:18:42;;;;;;;39.10;21.80;;;;;;;-7.08;100.00;140561.38;106647;1261;25416;-64
2024/03/12 10:21:29;;;;;;;37.00;21.20;;;;;;;-7.12;100.00;140549.80;106642;1259;25345;-63
2024/03/12 10:24:21;;;;;;;40.00;20.80;;;;;;;-7.17;100.00;140538.70;106637;1257;25401;-68
2024/03/12 10:27:07;;;;;;;46.20;23.90;;;;;;;-7.19;100.00;140533.00;106648;1259;25435;-66
2024/03/12 10:29:53;;;;;;;41.20;22.90;;;;;;;-7.22;100.00;140527.09;106648;1260;25374;-67
2024/03/12 10:32:40;;;;;;;41.30;23.20;;;;;;;-7.26;100.00;140518.45;106670;1265;25535;-68
2024/03/12 10:35:26;;;;;;;48.30;24.60;;;;;;;-7.31;100.00;140506.84;106635;1262;25425;-65
2024/03/12 10:38:32;;;;;;;36.60;19.50;;;;;;;-7.32;100.00;140503.14;106678;1261;25338;-65
2024/03/12 10:41:20;;;;;;;43.00;22.80;;;;;;;-7.40;100.00;140484.38;106633;1262;25337;-62
2024/03/12 10:44:10;;;;;;;46.20;25.00;;;;;;;-7.38;100.00;140488.83;106644;1262;25532;-66
2024/03/12 10:47:00;;;;;;;46.00;24.00;;;;;;;-7.39;100.00;140485.84;106661;1259;25337;-64
2024/03/12 10:49:49;;;;;;;42.60;24.00;;;;;;;-7.44;100.00;140473.25;106636;1261;25405;-64
2024/03/12 10:52:35;;;;;;;37.40;21.50;;;;;;;-7.49;100.00;140460.92;106635;1259;25376;-66
2024/03/12 10:55:22;;;;;;;37.70;22.50;;;;;;;-7.53;100.00;140451.53;106640;1260;25469;-63
2024/03/12 10:58:09;;;;;;;39.80;23.10;;;;;;;-7.50;100.00;140458.47;106631;1261;25415;-65
2024/03/12 11:00:55;;;;;;;38.70;23.00;;;;;;;-7.51;100.00;140455.73;106625;1262;25358;-62
2024/03/12 11:03:43;;;;;;;36.90;20.90;;;;;;;-7.55;100.00;140445.86;106628;1260;25376;-66
2024/03/12 11:06:30;;;;;;;37.70;21.70;;;;;;;-7.62;100.00;140430.56;106649;1261;24203;-66
2024/03/12 11:09:21;;;;;;;38.20;20.20;;;;;;;-7.60;100.00;140435.25;106666;1262;25450;-67
2024/03/12 11:12:09;;;;;;;40.10;22.00;;;;;;;-7.61;100.00;140433.03;106656;1262;24839;-67
2024/03/12 11:14:55;;;;;;;46.10;25.60;;;;;;;-7.61;100.00;140433.53;106638;1262;25449;-63
2024/03/12 11:17:49;;;;;;;41.90;23.00;;;;;;;-7.54;100.00;140449.56;106631;1261;25476;-63
2024/03/12 11:20:39;;;;;;;40.20;21.60;;;;;;;-7.55;100.00;140447.34;106635;1261;25348;-66
2024/03/12 11:23:28;;;;;;;32.80;18.80;;;;;;;-7.58;100.00;140441.17;106628;1262;25461;-65
2024/03/12 11:26:15;;;;;;;34.10;19.10;;;;;;;-7.60;100.00;140434.53;106677;1266;25477;-65
2024/03/12 11:29:01;;;;;;;35.10;21.10;;;;;;;-7.68;100.00;140416.72;106672;1262;25599;-65
2024/03/12 11:31:47;;;;;;;38.00;20.40;;;;;;;-7.74;100.00;140402.42;106614;1262;25373;-63
2024/03/12 11:34:35;;;;;;;43.50;21.40;;;;;;;-7.73;100.00;140402.94;106613;1261;25349;-63
2024/03/12 11:37:21;;;;;;;32.40;18.20;;;;;;;-7.77;100.00;140394.55;106459;1261;25404;-66
2024/03/12 11:40:27;;;;;;;30.50;17.50;;;;;;;-7.84;100.00;140378.00;106478;1260;25363;-63
2024/03/12 11:43:37;;;;;;;30.50;17.00;;;;;;;-7.89;100.00;140365.16;106466;1262;26515;-63
2024/03/12 11:46:42;;;;;;;32.90;17.50;;;;;;;-7.97;100.00;140346.16;106575;1261;25418;-64
2024/03/12 11:49:31;;;;;;;21.20;12.40;;;;;;;-8.02;100.00;140333.58;106660;1261;25498;-63
2024/03/12 11:52:21;;;;;;;23.30;13.50;;;;;;;-8.08;100.00;140320.52;106644;1262;24337;-66
2024/03/12 11:55:10;;;;;;;22.60;13.00;;;;;;;-8.14;100.00;140305.20;106664;1261;25338;-66
2024/03/12 11:57:58;;;;;;;20.60;12.40;;;;;;;-8.21;100.00;140289.17;106649;1260;25498;-62
2024/03/12 12:00:44;;;;;;;25.20;13.30;;;;;;;-8.27;100.00;140273.63;106646;1262;25348;-63
2024/03/12 12:03:30;;;;;;;23.50;14.40;;;;;;;-8.32;100.00;140261.78;106631;1274;25367;-68
2024/03/12 12:06:19;;;;;;;24.80;14.30;;;;;;;-8.38;100.00;140247.28;106628;1262;25501;-62
2024/03/12 12:09:08;;;;;;;25.30;13.90;;;;;;;-8.44;100.00;140232.48;106625;1260;25424;-63
2024/03/12 12:11:55;;;;;;;31.70;15.00;;;;;;;-8.47;100.00;140224.84;106654;1262;25376;-67
2024/03/12 12:14:43;;;;;;;27.00;15.90;;;;;;;-8.49;100.00;140219.92;106629;1262;25337;-64
2024/03/12 12:17:31;;;;;;;31.40;15.60;;;;;;;-8.51;100.00;140216.72;106651;1262;25451;-64
2024/03/12 12:20:21;;;;;;;29.50;18.50;;;;;;;-8.52;100.00;140214.50;106632;1279;25345;-63
2024/03/12 12:23:07;;;;;;;33.40;20.00;;;;;;;-8.53;100.00;140212.03;106669;1262;25366;-64
2024/03/12 12:25:54;;;;;;;34.20;18.40;;;;;;;-8.55;100.00;140208.09;106623;1262;25370;-66
2024/03/12 12:28:41;;;;;;;30.80;19.00;;;;;;;-8.55;100.00;140206.84;106667;1260;25424;-64
2024/03/12 12:31:29;;;;;;;36.90;20.80;;;;;;;-8.53;100.00;140211.77;106653;1261;25463;-64